Time;durP1;ratioP1;P1;durP2;ratioP2;P2;SDS_P1;SDS_P2;PMS_P1;PMS_P2;Temp;Humidity;BMP_temperature;BMP_pressure;BME280_temperature;BME280_humidity;BME280_pressure;Samples;Min_cycle;Max_cycle;Signal;HPM_P1;HPM_P2
2022/10/11 00:00:44;;;;;;;16.27;10.67;;;;;;;-141.97;71.18;47532.53;4952870;29;20181;-90
2022/10/11 00:03:09;;;;;;;16.53;10.70;;;;;;;-141.97;70.89;47480.63;4952693;29;20270;-90
2022/10/11 00:05:35;;;;;;;16.67;10.67;;;;;;;-141.97;71.20;47578.66;4954595;28;20168;-90
2022/10/11 00:08:04;;;;;;;14.70;10.63;;;;;;;-141.97;71.45;47497.94;4954004;28;20184;-89
2022/10/11 00:10:30;;;;;;;17.37;10.87;;;;;;;-141.97;71.55;47665.16;4968678;28;20183;-89
2022/10/11 00:12:55;;;;;;;18.20;10.90;;;;;;;-141.97;72.10;47413.38;4953821;28;20204;-89
2022/10/11 00:15:21;;;;;;;16.27;10.57;;;;;;;-141.97;72.09;47615.19;4968563;28;20172;-89
2022/10/11 00:17:47;;;;;;;17.63;10.73;;;;;;;-141.97;72.15;47469.09;4953604;28;20169;-89
2022/10/11 00:20:13;;;;;;;16.03;10.77;;;;;;;-141.97;72.37;47544.06;4951961;28;20531;-89
2022/10/11 00:22:40;;;;;;;15.97;10.37;;;;;;;-141.97;72.38;47565.22;4954050;28;20161;-89
2022/10/11 00:25:07;;;;;;;19.97;10.53;;;;;;;-141.97;72.67;47582.50;4954012;28;20643;-89
2022/10/11 00:27:33;;;;;;;14.97;9.93;;;;;;;-141.97;72.84;47724.75;4953684;28;20181;-91
2022/10/11 00:29:58;;;;;;;17.67;10.50;;;;;;;-141.97;72.90;47521.00;4953392;28;20177;-89
2022/10/11 00:32:24;;;;;;;16.53;10.43;;;;;;;-141.97;73.53;47576.75;4953461;29;20207;-89
2022/10/11 00:34:50;;;;;;;15.93;10.47;;;;;;;-141.97;73.95;47430.66;4952248;29;20705;-89
2022/10/11 00:37:15;;;;;;;19.47;11.13;;;;;;;-141.97;74.48;47380.69;4952316;29;20165;-90
2022/10/11 00:39:40;;;;;;;17.10;11.37;;;;;;;-141.97;75.36;47678.63;4952431;29;20170;-89
2022/10/11 00:42:11;;;;;;;17.40;11.07;;;;;;;-141.97;75.18;47697.84;4952557;29;20170;-89
2022/10/11 00:44:42;;;;;;;17.93;11.43;;;;;;;-141.97;75.57;47592.13;4954020;28;20252;-89
2022/10/11 00:47:23;;;;;;;18.70;10.90;;;;;;;-141.97;75.68;47499.84;4952511;29;20227;-89
2022/10/11 00:49:57;;;;;;;17.70;10.80;;;;;;;-141.97;76.51;47592.13;4952043;29;20238;-89
2022/10/11 00:52:32;;;;;;;20.13;11.13;;;;;;;-141.97;77.03;47690.16;4951748;29;20295;-89
2022/10/11 00:55:02;;;;;;;20.50;11.13;;;;;;;-141.97;76.89;47534.44;4953687;28;20247;-89
2022/10/11 00:57:32;;;;;;;17.17;11.53;;;;;;;-141.97;77.36;47569.06;4952070;29;20173;-89
2022/10/11 00:59:58;;;;;;;20.40;12.03;;;;;;;-141.97;77.80;47726.66;4952068;29;20184;-89
2022/10/11 01:02:25;;;;;;;19.37;12.27;;;;;;;-141.97;78.14;47567.13;4953779;28;20228;-89
2022/10/11 01:04:51;;;;;;;20.07;12.03;;;;;;;-141.97;78.06;47595.97;4953682;28;20181;-88
2022/10/11 01:07:19;;;;;;;19.63;12.37;;;;;;;-141.97;78.14;47463.34;4953289;28;20173;-88
2022/10/11 01:09:45;;;;;;;21.47;12.10;;;;;;;-141.97;78.04;47503.69;4952146;29;20183;-88
2022/10/11 01:12:15;;;;;;;20.80;12.43;;;;;;;-141.97;77.75;47597.88;4952099;29;20212;-89
2022/10/11 01:14:53;;;;;;;19.43;12.07;;;;;;;-141.97;77.66;47519.06;4952213;29;20268;-88
2022/10/11 01:17:55;;;;;;;21.97;13.33;;;;;;;-141.97;77.82;47594.03;4953385;28;20176;-88
2022/10/11 01:20:57;;;;;;;22.10;12.93;;;;;;;-141.97;77.79;47592.13;4953193;29;20181;-90
2022/10/11 01:23:43;;;;;;;22.67;13.47;;;;;;;-141.97;78.24;47601.72;4951820;29;20641;-90
2022/10/11 01:26:37;;;;;;;26.10;14.00;;;;;;;-141.97;78.39;47599.81;4951846;29;20184;-90
2022/10/11 01:29:15;;;;;;;22.33;13.43;;;;;;;-141.97;78.83;47663.22;4951992;29;20212;-90
2022/10/11 01:31:49;;;;;;;25.07;13.43;;;;;;;-141.97;78.56;47622.88;4959527;28;20172;-89
2022/10/11 01:34:23;;;;;;;21.70;13.80;;;;;;;-141.97;78.52;47640.16;4960959;29;20176;-90
2022/10/11 01:37:18;;;;;;;23.43;14.37;;;;;;;-141.97;78.68;47622.88;4956871;29;20161;-89
2022/10/11 01:39:52;;;;;;;24.23;14.07;;;;;;;-141.97;79.17;47549.84;4860576;29;20304;-88
2022/10/11 01:42:19;;;;;;;22.53;13.80;;;;;;;-141.97;79.69;47497.94;4860145;29;20188;-89
2022/10/11 01:44:47;;;;;;;25.20;14.40;;;;;;;-141.97;79.97;47592.13;4861534;29;20272;-88
2022/10/11 01:47:21;;;;;;;24.60;14.73;;;;;;;-141.97;79.82;47740.13;4847068;29;20713;-87
2022/10/11 01:49:55;;;;;;;23.80;14.50;;;;;;;-141.97;80.30;47634.41;4860632;29;20620;-89
2022/10/11 01:52:21;;;;;;;24.80;14.50;;;;;;;-141.97;80.45;47572.91;4844472;29;20208;-89
2022/10/11 01:54:58;;;;;;;26.57;14.30;;;;;;;-141.97;80.18;47611.34;4860311;29;20620;-88
2022/10/11 01:57:54;;;;;;;23.03;13.73;;;;;;;-141.97;79.92;47576.75;4861629;29;20571;-89
2022/10/11 02:00:28;;;;;;;24.50;14.43;;;;;;;-141.97;80.53;47572.91;4844360;29;20203;-89
2022/10/11 02:03:17;;;;;;;23.00;13.93;;;;;;;-141.97;80.32;47609.41;4859788;29;20199;-89
2022/10/11 02:06:08;;;;;;;24.13;14.03;;;;;;;-141.97;80.43;47624.78;4859837;29;20539;-89
2022/10/11 02:09:17;;;;;;;26.47;13.53;;;;;;;-141.97;79.93;47592.13;4789971;29;20715;-88
2022/10/11 02:11:43;;;;;;;24.40;13.57;;;;;;;-141.97;80.16;47588.28;4736285;30;20207;-89
2022/10/11 02:14:12;;;;;;;20.60;13.37;;;;;;;-141.97;80.10;47607.50;4736101;30;20218;-88
2022/10/11 02:16:53;;;;;;;23.83;13.53;;;;;;;-141.97;80.40;47745.88;4796163;29;20236;-88
2022/10/11 02:19:23;;;;;;;21.30;13.17;;;;;;;-141.97;80.02;47597.88;4841379;29;20624;-88
2022/10/11 02:21:53;;;;;;;23.70;13.10;;;;;;;-141.97;80.10;47586.34;4841539;29;20259;-88
2022/10/11 02:24:26;;;;;;;20.57;12.63;;;;;;;-141.97;80.22;47547.91;4841575;29;20181;-89
2022/10/11 02:26:54;;;;;;;22.23;13.17;;;;;;;-141.97;80.23;47557.53;4841121;29;20691;-89
2022/10/11 02:29:23;;;;;;;24.27;13.17;;;;;;;-141.97;79.89;47540.22;4841060;29;20346;-88
2022/10/11 02:31:50;;;;;;;21.53;12.70;;;;;;;-141.97;79.87;47709.38;4825661;29;20271;-89
2022/10/11 02:34:18;;;;;;;19.03;12.80;;;;;;;-141.97;80.10;47757.41;4840918;29;20260;-89
2022/10/11 02:36:54;;;;;;;19.27;12.77;;;;;;;-141.97;79.73;47542.16;4841082;29;20208;-88
2022/10/11 02:39:26;;;;;;;20.33;11.97;;;;;;;-141.97;79.67;47619.03;4841702;29;20200;-88
2022/10/11 02:41:56;;;;;;;21.13;12.30;;;;;;;-141.97;79.80;47524.84;4841140;29;20218;-89
2022/10/11 02:44:34;;;;;;;19.80;11.83;;;;;;;-141.97;79.84;47619.03;4840327;29;20188;-89
2022/10/11 02:47:00;;;;;;;22.40;11.80;;;;;;;-141.97;79.72;47538.28;4857839;29;20367;-89
2022/10/11 02:49:28;;;;;;;20.97;12.97;;;;;;;-141.97;79.65;47617.09;4935227;29;20196;-90
2022/10/11 02:51:55;;;;;;;22.50;12.40;;;;;;;-141.97;79.43;47549.84;4954022;29;20704;-90
2022/10/11 02:54:21;;;;;;;22.53;12.20;;;;;;;-141.97;79.47;47611.34;4954338;29;20231;-89
2022/10/11 02:56:47;;;;;;;22.37;12.43;;;;;;;-141.97;79.81;47734.34;4954225;29;20328;-89
2022/10/11 02:59:12;;;;;;;22.20;12.67;;;;;;;-141.97;79.87;47569.06;4954090;29;20697;-89
2022/10/11 03:01:37;;;;;;;20.60;11.67;;;;;;;-141.97;79.90;47565.22;4955425;28;20169;-89
2022/10/11 03:04:03;;;;;;;19.03;11.80;;;;;;;-141.97;79.84;47638.25;4954663;29;20273;-89
2022/10/11 03:06:28;;;;;;;23.37;12.47;;;;;;;-141.97;79.78;47597.88;4955421;28;20172;-90
2022/10/11 03:08:54;;;;;;;19.73;11.37;;;;;;;-141.97;79.79;47422.97;4955862;28;20183;-89
2022/10/11 03:11:19;;;;;;;19.33;11.53;;;;;;;-141.97;79.69;47695.91;4955258;29;20297;-89
2022/10/11 03:13:45;;;;;;;21.90;11.93;;;;;;;-141.97;79.58;47588.28;4955456;28;20208;-88
2022/10/11 03:16:10;;;;;;;20.40;11.60;;;;;;;-141.97;79.80;47617.09;4953896;29;20227;-89
2022/10/11 03:18:36;;;;;;;19.13;11.80;;;;;;;-141.97;79.76;47436.44;4954611;29;20176;-88
2022/10/11 03:21:01;;;;;;;20.83;11.67;;;;;;;-141.97;80.09;47611.34;4965363;28;20259;-88
2022/10/11 03:23:27;;;;;;;20.80;11.83;;;;;;;-141.97;80.27;47694.00;4969655;28;20173;-90
2022/10/11 03:25:52;;;;;;;20.03;11.60;;;;;;;-141.97;80.13;47569.06;4953987;29;20594;-89
2022/10/11 03:28:18;;;;;;;18.30;11.57;;;;;;;-141.97;79.81;47513.31;4953623;29;20172;-89
2022/10/11 03:30:47;;;;;;;21.97;11.30;;;;;;;-141.97;80.04;47471.03;4954973;28;20629;-89
2022/10/11 03:33:12;;;;;;;18.60;11.40;;;;;;;-141.97;80.03;47457.56;4954720;28;20236;-90
2022/10/11 03:35:39;;;;;;;19.73;12.20;;;;;;;-141.97;79.90;47653.63;4955106;28;20196;-89
2022/10/11 03:38:05;;;;;;;19.57;11.40;;;;;;;-141.97;79.69;47597.88;4953645;29;20173;-90
2022/10/11 03:40:30;;;;;;;17.70;10.83;;;;;;;-141.97;79.97;47707.44;4954671;28;20582;-91
2022/10/11 03:42:56;;;;;;;24.37;11.57;;;;;;;-141.97;79.68;47526.75;4953834;29;20657;-91
2022/10/11 03:45:22;;;;;;;20.33;11.73;;;;;;;-141.97;79.45;47772.78;4953176;29;20173;-90
2022/10/11 03:47:48;;;;;;;21.70;11.70;;;;;;;-141.97;79.71;47624.78;4954634;28;20179;-90
2022/10/11 03:50:13;;;;;;;19.00;11.33;;;;;;;-141.97;79.55;47611.34;4954284;29;20216;-89
2022/10/11 03:52:38;;;;;;;17.93;11.90;;;;;;;-141.97;79.68;47763.19;4954117;29;20200;-90
2022/10/11 03:55:05;;;;;;;20.40;11.50;;;;;;;-141.97;79.58;47682.47;4969908;28;20227;-88
2022/10/11 03:57:30;;;;;;;22.30;11.67;;;;;;;-141.97;79.44;47569.06;4955325;28;20171;-90
2022/10/11 03:59:56;;;;;;;21.27;11.97;;;;;;;-141.97;79.26;47480.63;4955376;28;20616;-89
2022/10/11 04:02:22;;;;;;;18.93;12.00;;;;;;;-141.97;79.49;47521.00;4953510;29;20181;-87
2022/10/11 04:04:47;;;;;;;27.70;13.33;;;;;;;-141.97;79.95;47567.13;4953051;29;20172;-89
2022/10/11 04:07:13;;;;;;;18.73;11.47;;;;;;;-141.97;80.13;47717.06;4953222;29;20176;-89
2022/10/11 04:09:38;;;;;;;19.43;11.73;;;;;;;-141.97;80.01;47486.41;4952831;29;20256;-90
2022/10/11 04:12:04;;;;;;;19.40;11.60;;;;;;;-141.97;80.35;47742.03;4952867;29;20695;-90
2022/10/11 04:14:29;;;;;;;19.83;11.67;;;;;;;-141.97;80.25;47695.91;4953353;29;20630;-89
2022/10/11 04:16:55;;;;;;;22.23;12.00;;;;;;;-141.97;80.59;47634.41;4954727;28;20569;-89
2022/10/11 04:19:20;;;;;;;18.13;11.60;;;;;;;-141.97;80.56;47780.47;4955744;28;20296;-88
2022/10/11 04:21:46;;;;;;;22.53;12.23;;;;;;;-141.97;81.10;47534.44;4954115;29;20191;-90
2022/10/11 04:24:11;;;;;;;23.87;12.67;;;;;;;-141.97;81.19;47605.56;4954754;29;20236;-89
2022/10/11 04:26:37;;;;;;;21.43;10.87;;;;;;;-141.97;80.90;47570.97;4955987;29;20183;-88
2022/10/11 04:29:03;;;;;;;19.07;12.07;;;;;;;-141.97;80.85;47403.75;4952772;29;20204;-90
2022/10/11 04:31:29;;;;;;;19.27;11.63;;;;;;;-141.97;81.49;47549.84;4953360;29;20208;-90
2022/10/11 04:33:55;;;;;;;17.90;11.43;;;;;;;-141.97;81.18;47722.81;4953470;28;20227;-88
2022/10/11 04:36:21;;;;;;;20.43;12.20;;;;;;;-141.97;81.14;47549.84;4952504;29;20263;-88
2022/10/11 04:38:47;;;;;;;22.33;11.87;;;;;;;-141.97;80.60;47524.84;4952404;29;20248;-89
2022/10/11 04:41:13;;;;;;;19.57;11.60;;;;;;;-141.97;80.05;47738.19;4952315;29;20180;-89
2022/10/11 04:43:39;;;;;;;22.03;11.73;;;;;;;-141.97;80.30;47538.28;4953518;28;20232;-88
2022/10/11 04:46:05;;;;;;;18.67;11.50;;;;;;;-141.97;79.92;47607.50;4953735;29;20232;-90
2022/10/11 04:48:31;;;;;;;20.00;11.90;;;;;;;-141.97;79.63;47561.38;4959245;28;20197;-90
2022/10/11 04:50:57;;;;;;;19.63;11.17;;;;;;;-141.97;79.12;47461.41;4968163;28;20575;-88
2022/10/11 04:53:22;;;;;;;19.10;11.00;;;;;;;-141.97;79.39;47736.28;4953323;28;20275;-90
2022/10/11 04:56:03;;;;;;;20.97;11.37;;;;;;;-141.97;78.86;47603.66;4952398;29;20188;-89
2022/10/11 04:58:30;;;;;;;19.33;11.63;;;;;;;-141.97;78.97;47501.78;4940779;28;20563;-88
2022/10/11 05:00:57;;;;;;;19.70;11.63;;;;;;;-141.97;78.71;47622.88;4965171;28;20637;-88
2022/10/11 05:03:23;;;;;;;23.30;11.47;;;;;;;-141.97;78.54;47638.25;4952208;28;20317;-90
2022/10/11 05:05:48;;;;;;;22.50;11.40;;;;;;;-141.97;78.20;47761.25;4950671;28;20268;-89
2022/10/11 05:08:14;;;;;;;22.57;11.47;;;;;;;-141.97;77.89;47551.75;4961136;28;20219;-86
2022/10/11 05:10:39;;;;;;;23.23;10.83;;;;;;;-141.97;77.90;47553.69;4956902;28;20730;-87
2022/10/11 05:13:05;;;;;;;18.13;11.10;;;;;;;-141.97;77.66;47603.66;4955123;28;20208;-87
2022/10/11 05:15:31;;;;;;;18.70;10.40;;;;;;;-141.97;77.57;47609.41;4953979;29;20332;-87
2022/10/11 05:17:56;;;;;;;17.43;10.70;;;;;;;-141.97;77.50;47749.72;4954938;28;20189;-88
2022/10/11 05:20:22;;;;;;;20.30;11.13;;;;;;;-141.97;77.41;47561.38;4953170;28;20180;-87
2022/10/11 05:22:47;;;;;;;18.70;11.33;;;;;;;-141.97;77.17;47519.06;4955182;29;20196;-92
2022/10/11 05:25:12;;;;;;;19.73;10.90;;;;;;;-141.97;77.41;47561.38;4954686;29;20188;-91
2022/10/11 05:27:38;;;;;;;19.80;12.53;;;;;;;-141.97;77.25;47692.06;4955155;29;20243;-89
2022/10/11 05:30:04;;;;;;;19.27;11.27;;;;;;;-141.97;76.94;47718.97;4954642;28;20192;-90
2022/10/11 05:32:30;;;;;;;22.17;11.30;;;;;;;-141.97;76.51;47472.94;4955013;28;20294;-91
2022/10/11 05:34:59;;;;;;;19.27;10.97;;;;;;;-141.97;75.71;47632.47;4971883;28;20284;-91
2022/10/11 05:37:24;;;;;;;17.80;10.40;;;;;;;-141.97;75.27;47615.19;4977651;28;20185;-92
2022/10/11 05:39:50;;;;;;;15.63;9.97;;;;;;;-141.97;75.44;47711.28;4971023;28;20215;-92
2022/10/11 05:42:15;;;;;;;17.43;10.33;;;;;;;-141.97;75.09;47724.75;4954471;29;20219;-91
2022/10/11 05:44:41;;;;;;;18.87;9.87;;;;;;;-141.97;74.89;47430.66;4953487;29;20198;-90
2022/10/11 05:47:06;;;;;;;13.67;10.27;;;;;;;-141.97;74.87;47453.72;4954857;28;20232;-91
2022/10/11 05:49:31;;;;;;;15.40;9.70;;;;;;;-141.97;74.50;47711.28;4954066;29;20211;-90
2022/10/11 05:51:57;;;;;;;16.03;9.90;;;;;;;-141.97;74.60;47567.13;4953046;29;20220;-92
2022/10/11 05:54:22;;;;;;;19.67;9.63;;;;;;;-141.97;74.32;47767.03;4954462;29;20244;-93
2022/10/11 05:56:48;;;;;;;16.80;9.73;;;;;;;-141.97;74.02;47672.84;4955933;29;20216;-92
2022/10/11 05:59:13;;;;;;;15.47;9.37;;;;;;;-141.97;73.84;47726.66;4935225;28;20858;-93
2022/10/11 06:01:39;;;;;;;17.57;9.40;;;;;;;-141.97;73.85;47557.53;4952843;29;20189;-92
2022/10/11 06:04:04;;;;;;;17.73;9.67;;;;;;;-141.97;73.80;47768.94;4953871;28;20188;-92
2022/10/11 06:06:30;;;;;;;21.20;9.97;;;;;;;-141.97;74.27;47749.72;4953700;28;20705;-93
2022/10/11 06:08:56;;;;;;;19.23;9.20;;;;;;;-141.97;73.69;47599.81;4958117;28;20192;-93
2022/10/11 06:11:25;;;;;;;16.37;9.53;;;;;;;-141.97;73.50;47605.56;4969393;28;20200;-92
2022/10/11 06:13:56;;;;;;;17.70;9.23;;;;;;;-141.97;73.73;47524.84;4969030;28;20219;-92
2022/10/11 06:16:23;;;;;;;18.00;9.83;;;;;;;-141.97;74.09;47459.50;4969316;28;20184;-92
2022/10/11 06:18:55;;;;;;;21.10;8.97;;;;;;;-141.97;74.49;47561.38;4952908;28;20247;-94
2022/10/11 06:21:22;;;;;;;17.63;9.60;;;;;;;-141.97;74.99;47588.28;4952467;28;20188;-92
2022/10/11 06:23:49;;;;;;;18.80;10.03;;;;;;;-141.97;74.63;47676.69;4968354;28;20184;-93
2022/10/11 06:26:16;;;;;;;17.43;9.77;;;;;;;-141.97;74.20;47472.94;4953003;29;20275;-92
2022/10/11 06:28:43;;;;;;;16.63;9.63;;;;;;;-141.97;74.13;47638.25;4952147;28;20184;-92
2022/10/11 06:31:08;;;;;;;23.07;10.33;;;;;;;-141.97;73.85;47720.91;4953454;28;20705;-91
2022/10/11 06:33:35;;;;;;;19.90;10.00;;;;;;;-141.97;73.91;47722.81;4953898;28;20204;-92
2022/10/11 06:36:10;;;;;;;18.40;9.40;;;;;;;-141.97;73.79;47663.22;4954200;28;20681;-93
2022/10/11 06:38:36;;;;;;;16.80;9.43;;;;;;;-141.97;73.67;47745.88;4953920;28;20182;-92
2022/10/11 06:41:15;;;;;;;18.43;10.30;;;;;;;-141.97;73.62;47403.75;4952622;28;20192;-91
2022/10/11 06:43:40;;;;;;;19.83;10.60;;;;;;;-141.97;73.45;47407.59;4953208;28;20180;-91
2022/10/11 06:46:07;;;;;;;19.30;10.60;;;;;;;-141.97;73.67;47640.16;4951738;29;20231;-92
2022/10/11 06:48:32;;;;;;;18.90;10.73;;;;;;;-141.97;73.23;47599.81;4953791;28;20184;-92
2022/10/11 06:50:58;;;;;;;17.63;10.37;;;;;;;-141.97;73.20;47692.06;4952995;28;20180;-92
2022/10/11 06:53:24;;;;;;;20.87;10.67;;;;;;;-141.97;73.04;47647.84;4953053;28;20208;-92
2022/10/11 06:55:49;;;;;;;20.60;10.27;;;;;;;-141.97;72.82;47474.88;4955279;28;20195;-93
2022/10/11 06:58:15;;;;;;;20.80;10.67;;;;;;;-141.97;72.98;47630.56;4982869;28;20192;-90
2022/10/11 07:00:40;;;;;;;17.27;10.10;;;;;;;-141.97;73.22;47688.22;4947410;28;20232;-91
2022/10/11 07:03:07;;;;;;;18.83;9.90;;;;;;;-141.97;73.30;47392.22;4952211;29;20192;-92
2022/10/11 07:05:33;;;;;;;18.73;10.37;;;;;;;-141.97;73.58;47622.88;4952738;29;20193;-91
2022/10/11 07:07:59;;;;;;;21.83;10.37;;;;;;;-141.97;73.43;47667.06;4968433;28;20196;-91
2022/10/11 07:10:25;;;;;;;18.57;10.63;;;;;;;-141.97;72.65;47511.38;4952859;28;20195;-91
2022/10/11 07:12:51;;;;;;;17.03;10.27;;;;;;;-141.97;71.81;47761.25;4951303;29;20370;-90
2022/10/11 07:15:17;;;;;;;18.57;10.80;;;;;;;-141.97;71.02;47659.38;4952847;28;20705;-92
2022/10/11 07:17:42;;;;;;;16.17;10.37;;;;;;;-141.97;70.99;47607.50;4967422;28;20188;-91
2022/10/11 07:20:08;;;;;;;17.43;10.37;;;;;;;-141.97;71.19;47469.09;4955076;28;20692;-92
2022/10/11 07:22:34;;;;;;;18.10;10.00;;;;;;;-141.97;70.79;47761.25;4952184;28;20235;-91
2022/10/11 07:24:59;;;;;;;18.90;10.33;;;;;;;-141.97;71.71;47447.97;4951015;29;20184;-92
2022/10/11 07:27:25;;;;;;;18.63;10.80;;;;;;;-141.97;71.78;47642.09;4951415;29;20189;-92
2022/10/11 07:29:50;;;;;;;18.80;10.40;;;;;;;-141.97;71.09;47582.50;4951310;28;20641;-91
2022/10/11 07:32:15;;;;;;;17.13;11.43;;;;;;;-141.97;71.77;47576.75;4951699;29;20303;-90
2022/10/11 07:34:41;;;;;;;17.57;10.93;;;;;;;-141.97;72.06;47561.38;4953925;28;20714;-89
2022/10/11 07:37:22;;;;;;;21.23;11.23;;;;;;;-141.97;71.32;47626.72;4932541;29;20217;-90
2022/10/11 07:39:48;;;;;;;17.13;10.63;;;;;;;-141.97;71.45;47544.06;4916095;29;20266;-90
2022/10/11 07:42:14;;;;;;;17.00;10.20;;;;;;;-141.97;70.79;47634.41;4933327;29;20197;-90
2022/10/11 07:44:39;;;;;;;17.03;10.43;;;;;;;-141.97;70.38;47555.59;4932265;29;20680;-89
2022/10/11 07:47:04;;;;;;;18.47;10.30;;;;;;;-141.97;70.25;47647.84;4914277;29;20240;-91
2022/10/11 07:49:30;;;;;;;19.70;10.30;;;;;;;-141.97;69.52;47617.09;4914105;29;20308;-90
2022/10/11 07:51:55;;;;;;;16.37;10.10;;;;;;;-141.97;68.48;47565.22;4930625;29;20701;-89
2022/10/11 07:54:21;;;;;;;17.60;10.13;;;;;;;-141.97;67.55;47603.66;4914367;29;20229;-89
2022/10/11 07:56:46;;;;;;;17.93;10.40;;;;;;;-141.97;67.79;47605.56;4931461;29;20200;-89
2022/10/11 07:59:11;;;;;;;17.17;10.00;;;;;;;-141.97;67.59;47576.75;4906193;29;20249;-89
2022/10/11 08:01:37;;;;;;;18.40;9.17;;;;;;;-141.97;67.62;47797.78;4916030;29;20201;-89
2022/10/11 08:04:02;;;;;;;16.30;8.80;;;;;;;-141.97;67.15;47615.19;4914146;29;20193;-88
2022/10/11 08:06:31;;;;;;;15.53;8.33;;;;;;;-141.97;65.92;47580.59;4929806;29;20617;-89
2022/10/11 08:08:59;;;;;;;16.63;8.97;;;;;;;-141.97;65.35;47622.88;4911863;29;20708;-89
2022/10/11 08:11:30;;;;;;;15.73;7.83;;;;;;;-141.97;64.97;47626.72;4928419;29;20284;-90
2022/10/11 08:13:56;;;;;;;19.50;8.57;;;;;;;-141.97;65.17;47557.53;4919432;29;20402;-90
2022/10/11 08:16:21;;;;;;;14.20;7.77;;;;;;;-141.97;64.98;47557.53;4960755;29;20287;-92
2022/10/11 08:18:47;;;;;;;11.63;7.40;;;;;;;-141.97;64.83;47553.69;4959434;29;20217;-90
2022/10/11 08:21:15;;;;;;;12.97;7.10;;;;;;;-141.97;64.08;47603.66;4956350;28;20220;-90
2022/10/11 08:23:40;;;;;;;12.43;7.20;;;;;;;-141.97;63.88;47584.44;4971457;28;20180;-90
2022/10/11 08:26:06;;;;;;;11.70;7.23;;;;;;;-141.97;63.46;47551.75;4952046;29;20704;-89
2022/10/11 08:28:32;;;;;;;12.57;7.47;;;;;;;-141.97;63.95;47519.06;4950231;29;20729;-90
2022/10/11 08:30:58;;;;;;;13.07;7.67;;;;;;;-141.97;63.56;47505.63;4950619;29;20188;-90
2022/10/11 08:33:24;;;;;;;13.57;7.70;;;;;;;-141.97;63.21;47544.06;4950338;29;20252;-89
2022/10/11 08:35:51;;;;;;;13.47;7.80;;;;;;;-141.97;63.88;47642.09;4951418;28;20236;-90
2022/10/11 08:38:17;;;;;;;13.80;8.20;;;;;;;-141.97;64.39;47569.06;4950764;29;20290;-90
2022/10/11 08:40:52;;;;;;;12.53;7.50;;;;;;;-141.97;64.24;47603.66;4950442;28;20862;-90
2022/10/11 08:43:39;;;;;;;13.33;7.77;;;;;;;-141.97;63.53;47588.28;4950469;29;20180;-88
2022/10/11 08:46:08;;;;;;;15.80;7.93;;;;;;;-141.97;62.63;47421.06;4956228;29;20235;-90
2022/10/11 08:48:39;;;;;;;12.77;8.27;;;;;;;-141.97;61.98;47538.28;4967528;29;20286;-90
2022/10/11 08:51:24;;;;;;;12.90;7.70;;;;;;;-141.97;61.68;47499.84;4951717;29;20181;-91
2022/10/11 08:53:55;;;;;;;11.03;7.50;;;;;;;-141.97;61.04;47569.06;4954173;28;20583;-91
2022/10/11 08:56:22;;;;;;;16.60;8.90;;;;;;;-141.97;61.46;47561.38;4966902;28;20192;-90
2022/10/11 08:59:10;;;;;;;13.93;8.10;;;;;;;-141.97;61.33;47465.25;4952183;28;20316;-90
2022/10/11 09:01:41;;;;;;;13.77;8.07;;;;;;;-141.97;61.23;47569.06;4950048;28;20603;-89
2022/10/11 09:04:13;;;;;;;14.40;8.07;;;;;;;-141.97;60.56;47511.38;4950235;28;20194;-90
2022/10/11 09:06:47;;;;;;;16.37;8.30;;;;;;;-141.97;60.10;47580.59;4950580;29;20196;-91
2022/10/11 09:10:14;;;;;;;13.40;8.27;;;;;;;-141.97;60.16;47599.81;4951357;28;20622;-91
2022/10/11 09:12:55;;;;;;;12.43;8.43;;;;;;;-141.97;60.15;47594.03;4889770;29;20704;-89
2022/10/11 09:15:30;;;;;;;16.13;8.27;;;;;;;-141.97;60.53;47613.25;4876708;29;20187;-90
2022/10/11 09:18:21;;;;;;;13.33;7.90;;;;;;;-141.97;60.08;47599.81;4876421;29;20693;-90
2022/10/11 09:21:11;;;;;;;15.17;9.37;;;;;;;-141.97;60.95;47569.06;4876109;29;20285;-90
2022/10/11 09:24:12;;;;;;;16.17;8.97;;;;;;;-141.97;60.61;47567.13;4876088;29;20227;-89
2022/10/11 09:26:49;;;;;;;13.40;8.53;;;;;;;-141.97;60.71;47567.13;4821429;29;20205;-89
2022/10/11 09:29:30;;;;;;;16.53;9.80;;;;;;;-141.97;60.23;47576.75;4832427;29;20177;-90
2022/10/11 09:31:57;;;;;;;13.97;9.40;;;;;;;-141.97;60.14;47594.03;4817539;29;20233;-89
2022/10/11 09:34:31;;;;;;;16.13;9.70;;;;;;;-141.97;59.17;47580.59;4818004;29;20831;-89
2022/10/11 09:37:13;;;;;;;15.03;9.17;;;;;;;-141.97;58.62;47715.13;4817492;29;20197;-90
2022/10/11 09:39:44;;;;;;;14.10;9.87;;;;;;;-141.97;59.28;47588.28;4824403;29;20203;-90
2022/10/11 09:42:11;;;;;;;15.43;9.73;;;;;;;-141.97;59.19;47565.22;4843078;29;20197;-89
2022/10/11 09:44:39;;;;;;;16.63;9.60;;;;;;;-141.97;58.33;47511.38;4875546;29;20251;-90
2022/10/11 09:47:06;;;;;;;19.93;10.00;;;;;;;-141.97;58.26;47603.66;4875732;29;20683;-90
2022/10/11 09:49:46;;;;;;;16.83;10.27;;;;;;;-141.97;58.03;47461.41;4875848;29;20265;-90
2022/10/11 09:52:17;;;;;;;19.73;11.00;;;;;;;-141.97;58.28;47590.19;4891269;29;20531;-90
2022/10/11 09:54:51;;;;;;;16.80;11.00;;;;;;;-141.97;58.82;47569.06;4895406;29;20265;-90
2022/10/11 09:57:23;;;;;;;19.60;11.27;;;;;;;-141.97;59.28;47592.13;4878796;29;20241;-89
2022/10/11 10:00:24;;;;;;;18.70;11.67;;;;;;;-141.97;59.28;47605.56;4886589;29;20258;-89
2022/10/11 10:02:52;;;;;;;18.67;10.70;;;;;;;-141.97;58.00;47569.06;4911362;29;20715;-90
2022/10/11 10:05:24;;;;;;;21.13;12.33;;;;;;;-141.97;57.68;47738.19;4953690;28;20185;-90
2022/10/11 10:08:09;;;;;;;22.50;12.33;;;;;;;-141.97;57.62;47715.13;4953671;29;20223;-89
2022/10/11 10:10:37;;;;;;;20.97;13.67;;;;;;;-141.97;57.05;47747.81;4954919;28;20189;-89
2022/10/11 10:13:18;;;;;;;23.00;13.10;;;;;;;-141.97;56.28;47751.66;4955754;29;20220;-90
2022/10/11 10:15:49;;;;;;;20.73;13.10;;;;;;;-141.97;56.51;47603.66;5061985;23;20258;-90
2022/10/11 10:18:37;;;;;;;20.43;13.03;;;;;;;-141.97;56.44;47565.22;5182189;23;20256;-89
2022/10/11 10:21:09;;;;;;;20.10;12.97;;;;;;;-141.97;55.58;47536.38;4958113;28;20192;-90
2022/10/11 10:23:36;;;;;;;20.43;12.90;;;;;;;-141.97;54.89;47555.59;4960781;28;20220;-91
2022/10/11 10:26:10;;;;;;;19.27;12.50;;;;;;;-141.97;54.17;47555.59;4952903;28;20263;-90
2022/10/11 10:28:36;;;;;;;17.47;12.37;;;;;;;-141.97;52.83;47572.91;4951823;28;20755;-91
2022/10/11 10:31:01;;;;;;;17.37;12.53;;;;;;;-141.97;52.84;47570.97;4954804;28;20184;-90
2022/10/11 10:33:33;;;;;;;20.27;12.57;;;;;;;-141.97;53.19;47482.56;4954992;28;20676;-90
2022/10/11 10:36:25;;;;;;;24.13;13.83;;;;;;;-141.97;53.43;47584.44;4974109;28;20181;-90
2022/10/11 10:39:09;;;;;;;22.50;14.30;;;;;;;-141.97;52.29;47572.91;4958988;28;20188;-90
2022/10/11 10:41:34;;;;;;;19.70;13.93;;;;;;;-141.97;52.47;47717.06;4954164;28;20188;-90
2022/10/11 10:44:00;;;;;;;22.67;13.53;;;;;;;-141.97;52.23;47540.22;4953791;28;20185;-89
2022/10/11 10:46:54;;;;;;;22.67;14.10;;;;;;;-141.97;51.21;47574.81;4951900;28;20191;-90
2022/10/11 10:49:31;;;;;;;22.00;13.40;;;;;;;-141.97;51.06;47557.53;4953351;29;20196;-89
2022/10/11 10:52:04;;;;;;;19.47;13.67;;;;;;;-141.97;50.13;47657.47;4951695;29;20180;-91
2022/10/11 10:54:44;;;;;;;19.43;13.50;;;;;;;-141.97;49.52;47546.00;4962605;28;20963;-89
2022/10/11 10:57:30;;;;;;;22.13;13.53;;;;;;;-141.97;49.25;47540.22;4965751;28;20240;-88
2022/10/11 11:00:16;;;;;;;21.77;14.23;;;;;;;-141.97;50.32;47547.91;4940637;28;20239;-91
2022/10/11 11:03:08;;;;;;;22.37;14.30;;;;;;;-141.97;51.02;47551.75;4967589;28;20203;-90
2022/10/11 11:05:52;;;;;;;21.20;14.07;;;;;;;-141.97;51.21;47553.69;4952140;28;20189;-90
2022/10/11 11:08:51;;;;;;;22.03;14.93;;;;;;;-141.97;49.68;47570.97;4951233;29;20743;-92
2022/10/11 11:11:28;;;;;;;21.63;14.47;;;;;;;-141.97;49.80;47570.97;4951336;28;20202;-91
2022/10/11 11:14:00;;;;;;;21.63;14.20;;;;;;;-141.97;49.68;47547.91;4951630;29;20207;-91
2022/10/11 11:16:37;;;;;;;24.33;15.40;;;;;;;-141.97;50.51;47540.22;4951973;28;20233;-91
2022/10/11 11:19:21;;;;;;;21.80;15.30;;;;;;;-141.97;50.15;47590.19;4950939;28;20220;-90